createdAt,value
2019-04-22T00:00:36.547Z,18.70
2019-04-22T00:05:55.210Z,19.90
2019-04-22T00:11:13.232Z,18.13
2019-04-22T00:16:19.273Z,20.30
2019-04-22T00:21:27.515Z,19.27
2019-04-22T00:26:37.438Z,18.98
2019-04-22T00:31:46.245Z,17.87
2019-04-22T00:36:54.311Z,21.63
2019-04-22T00:42:01.962Z,19.77
2019-04-22T00:47:21.233Z,19.33
2019-04-22T00:52:16.956Z,21.43
2019-04-22T00:57:30.849Z,21.07
2019-04-22T01:02:39.698Z,23.30
2019-04-22T01:07:38.867Z,23.27
2019-04-22T01:12:44.282Z,24.43
2019-04-22T01:17:52.557Z,24.67
2019-04-22T01:23:02.075Z,25.67
2019-04-22T01:27:58.428Z,25.23
2019-04-22T01:32:53.873Z,27.53
2019-04-22T01:38:17.674Z,26.97
2019-04-22T01:43:35.341Z,29.03
2019-04-22T01:48:40.553Z,28.73
2019-04-22T01:53:43.415Z,32.73
2019-04-22T01:58:44.303Z,34.30
2019-04-22T02:04:01.254Z,36.63
2019-04-22T02:09:09.526Z,41.10
2019-04-22T02:14:11.346Z,41.33
2019-04-22T02:19:22.793Z,42.43
2019-04-22T02:24:35.306Z,45.17
2019-04-22T02:29:34.719Z,42.90
2019-04-22T02:34:49.677Z,46.53
2019-04-22T02:39:55.431Z,47.47
2019-04-22T02:44:53.598Z,50.50
2019-04-22T02:50:07.327Z,48.55
2019-04-22T03:10:57.064Z,52.47
2019-04-22T03:15:50.887Z,54.63
2019-04-22T03:20:58.148Z,55.47
2019-04-22T03:31:58.197Z,58.42
2019-04-22T03:37:07.058Z,54.40
2019-04-22T03:41:58.817Z,54.63
2019-04-22T03:47:07.400Z,54.60
2019-04-22T03:52:05.451Z,56.70
2019-04-22T04:02:35.705Z,55.23
2019-04-22T04:12:25.059Z,59.40
2019-04-22T04:17:37.399Z,55.63
2019-04-22T04:23:05.756Z,58.40
2019-04-22T04:32:57.109Z,61.60
2019-04-22T04:37:55.748Z,62.27
2019-04-22T04:48:17.679Z,64.23
2019-04-22T04:53:23.165Z,64.63
2019-04-22T04:58:37.169Z,64.40
2019-04-22T05:14:01.222Z,70.53
2019-04-22T05:18:57.168Z,70.53
2019-04-22T05:24:02.458Z,79.03
2019-04-22T05:29:06.579Z,78.07
2019-04-22T05:34:08.144Z,82.75
2019-04-22T05:39:15.716Z,89.20
2019-04-22T05:44:26.323Z,88.57
2019-04-22T05:49:28.843Z,82.67
2019-04-22T05:54:38.964Z,85.80
2019-04-22T05:59:46.250Z,89.03
2019-04-22T06:04:51.800Z,82.83
2019-04-22T06:10:08.204Z,76.07
2019-04-22T06:15:10.118Z,67.57
2019-04-22T06:20:15.972Z,71.77
2019-04-22T06:25:27.976Z,70.57
2019-04-22T06:30:28.394Z,71.60
2019-04-22T06:35:45.775Z,75.73
2019-04-22T06:40:46.997Z,75.30
2019-04-22T06:45:44.896Z,70.43
2019-04-22T06:50:52.949Z,69.23
2019-04-22T06:56:04.507Z,74.03
2019-04-22T07:01:19.340Z,71.43
2019-04-22T07:06:23.999Z,71.57
2019-04-22T07:11:23.679Z,68.00
2019-04-22T07:21:37.650Z,62.77
2019-04-22T07:26:47.747Z,58.87
2019-04-22T07:31:56.264Z,62.80
2019-04-22T07:37:11.013Z,61.17
2019-04-22T07:42:05.262Z,59.43
2019-04-22T07:47:18.608Z,52.87
2019-04-22T07:52:24.580Z,51.97
2019-04-22T08:02:37.481Z,53.83
2019-04-22T08:07:46.063Z,53.43
2019-04-22T08:12:51.815Z,53.53
2019-04-22T08:18:15.155Z,55.25
2019-04-22T08:23:04.811Z,53.35
2019-04-22T08:28:17.562Z,52.95
2019-04-22T08:33:22.106Z,52.23
2019-04-22T08:43:47.870Z,47.37
2019-04-22T08:48:48.146Z,49.17
2019-04-22T08:53:57.352Z,43.77
2019-04-22T08:59:02.046Z,43.50
2019-04-22T09:04:04.088Z,45.00
2019-04-22T09:09:11.680Z,38.57
2019-04-22T09:14:26.172Z,35.60
2019-04-22T09:19:22.733Z,35.37
2019-04-22T09:29:40.056Z,32.77
2019-04-22T09:34:46.992Z,35.23
2019-04-22T09:40:02.901Z,36.03
2019-04-22T09:45:01.943Z,39.63
2019-04-22T09:50:08.000Z,36.93
2019-04-22T10:00:25.416Z,34.53
2019-04-22T10:10:41.485Z,39.17
2019-04-22T10:15:52.118Z,40.00
2019-04-22T10:20:54.218Z,41.40
2019-04-22T10:26:00.800Z,45.17
2019-04-22T10:31:03.308Z,47.78
2019-04-22T10:35:45.891Z,44.77
2019-04-22T10:40:52.572Z,46.00
2019-04-22T10:45:58.048Z,41.43
2019-04-22T10:51:04.706Z,44.03
2019-04-22T10:56:10.079Z,46.70
2019-04-22T11:01:15.849Z,50.23
2019-04-22T11:06:21.576Z,53.50
2019-04-22T11:11:41.116Z,51.87
2019-04-22T11:16:37.269Z,49.13
2019-04-22T11:21:43.452Z,49.80
2019-04-22T11:26:50.062Z,54.80
2019-04-22T11:31:56.618Z,47.87
2019-04-22T11:37:03.181Z,48.43
2019-04-22T11:42:10.012Z,47.70
2019-04-22T11:47:16.894Z,48.43
2019-04-22T11:52:22.818Z,46.80
2019-04-22T11:57:28.897Z,48.30
2019-04-22T12:02:34.426Z,48.13
2019-04-22T12:07:40.950Z,45.95
2019-04-22T12:12:48.337Z,47.93
2019-04-22T12:17:55.170Z,45.63
2019-04-22T12:23:01.138Z,48.87
2019-04-22T12:28:06.643Z,47.37
2019-04-22T12:33:14.534Z,46.40
2019-04-22T12:38:20.239Z,39.07
2019-04-22T12:43:28.268Z,31.33
2019-04-22T12:48:35.090Z,35.80
2019-04-22T12:53:42.126Z,38.70
2019-04-22T12:58:47.870Z,36.53
2019-04-22T13:03:58.562Z,41.20
2019-04-22T13:09:00.394Z,33.70
2019-04-22T13:14:07.134Z,28.37
2019-04-22T13:19:15.249Z,30.13
2019-04-22T13:24:20.123Z,30.13
2019-04-22T13:29:30.983Z,23.67
2019-04-22T13:34:43.872Z,25.50
2019-04-22T13:39:43.268Z,22.95
2019-04-22T13:44:49.710Z,22.80
2019-04-22T13:50:31.413Z,17.37
2019-04-22T13:55:32.860Z,18.43
2019-04-22T14:00:13.740Z,13.47
2019-04-22T14:05:20.364Z,14.40
2019-04-22T14:10:26.950Z,17.60
2019-04-22T14:15:37.973Z,16.53
2019-04-22T14:20:44.941Z,13.50
2019-04-22T14:25:50.865Z,11.63
2019-04-22T14:30:56.943Z,12.50
2019-04-22T14:36:02.613Z,11.03
2019-04-22T14:41:08.758Z,15.83
2019-04-22T14:46:39.133Z,13.13
2019-04-22T14:51:45.148Z,13.63
2019-04-22T14:56:30.520Z,15.33
2019-04-22T15:01:39.386Z,13.88
2019-04-22T15:06:46.172Z,14.20
2019-04-22T15:11:58.188Z,12.83
2019-04-22T15:17:08.895Z,11.30
2019-04-22T15:22:14.687Z,9.67
2019-04-22T15:27:22.454Z,11.30
2019-04-22T15:32:29.365Z,11.03
2019-04-22T15:37:35.205Z,12.80
2019-04-22T15:42:43.270Z,11.67
2019-04-22T15:47:48.238Z,13.70
2019-04-22T15:52:57.005Z,9.57
2019-04-22T15:58:01.761Z,10.07
2019-04-22T16:03:10.435Z,9.83
2019-04-22T16:08:14.979Z,11.93
2019-04-22T16:13:24.850Z,12.23
2019-04-22T16:18:28.426Z,11.63
2019-04-22T16:23:40.445Z,11.08
2019-04-22T16:28:47.358Z,12.93
2019-04-22T16:33:52.631Z,14.50
2019-04-22T16:38:58.144Z,11.70
2019-04-22T16:44:04.611Z,11.30
2019-04-22T16:49:11.622Z,13.27
2019-04-22T16:54:17.995Z,13.90
2019-04-22T16:59:24.540Z,13.70
2019-04-22T17:04:38.996Z,12.33
2019-04-22T17:09:45.749Z,13.07
2019-04-22T17:14:58.099Z,13.97
2019-04-22T17:19:59.615Z,14.80
2019-04-22T17:25:06.549Z,15.13
2019-04-22T17:30:12.506Z,11.33
2019-04-22T17:35:19.911Z,10.93
2019-04-22T17:40:45.711Z,10.77
2019-04-22T17:46:07.202Z,11.75
2019-04-22T17:51:22.601Z,12.47
2019-04-22T17:56:21.610Z,11.07
2019-04-22T18:01:38.342Z,9.10
2019-04-22T18:06:46.618Z,9.60
2019-04-22T18:11:51.179Z,10.50
2019-04-22T18:16:52.054Z,10.35
2019-04-22T18:21:54.809Z,11.67
2019-04-22T18:27:29.147Z,11.70
2019-04-22T18:32:07.156Z,12.70
2019-04-22T18:37:16.414Z,12.63
2019-04-22T18:42:24.360Z,14.37
2019-04-22T18:47:32.328Z,15.17
2019-04-22T18:52:59.279Z,15.37
2019-04-22T18:58:02.813Z,16.35
2019-04-22T19:03:00.971Z,17.53
2019-04-22T19:08:29.206Z,17.60
2019-04-22T19:19:02.675Z,20.40
2019-04-22T19:23:45.188Z,22.95
2019-04-22T19:28:49.796Z,23.00
2019-04-22T19:34:01.473Z,20.97
2019-04-22T19:38:59.203Z,21.03
2019-04-22T19:44:15.996Z,22.70
2019-04-22T19:54:29.076Z,23.33
2019-04-22T19:59:32.814Z,24.27
2019-04-22T20:05:02.853Z,22.23
2019-04-22T20:10:05.356Z,21.60
2019-04-22T20:15:11.279Z,21.50
2019-04-22T20:20:22.811Z,18.87
2019-04-22T20:25:21.463Z,17.37
2019-04-22T20:30:39.847Z,17.95
2019-04-22T20:35:43.668Z,18.87
2019-04-22T20:40:50.473Z,18.10
2019-04-22T20:46:00.541Z,17.10
2019-04-22T20:51:08.791Z,15.63
2019-04-22T20:56:14.469Z,14.53
2019-04-22T21:01:16.182Z,13.63
2019-04-22T21:06:29.369Z,13.33
2019-04-22T21:11:34.014Z,14.87
2019-04-22T21:16:44.790Z,14.53
2019-04-22T21:21:50.952Z,13.83
2019-04-22T21:26:56.945Z,12.45
2019-04-22T21:32:10.473Z,9.58
2019-04-22T21:42:18.569Z,10.23
2019-04-22T21:47:51.478Z,14.63
2019-04-22T21:52:35.824Z,26.57
2019-04-22T21:58:06.860Z,28.00
2019-04-22T22:03:14.580Z,27.73
2019-04-22T22:08:24.612Z,29.00
2019-04-22T22:13:25.135Z,29.77
2019-04-22T22:18:24.130Z,22.83
2019-04-22T22:23:38.234Z,23.13
2019-04-22T22:28:52.127Z,22.40
2019-04-22T22:33:54.337Z,23.40
2019-04-22T22:38:56.157Z,21.45
2019-04-22T22:43:49.049Z,19.98
2019-04-22T22:49:18.525Z,20.10
2019-04-22T22:54:23.942Z,21.33
2019-04-22T22:59:27.641Z,20.87
2019-04-22T23:04:39.578Z,22.40
2019-04-22T23:09:44.262Z,18.90
2019-04-22T23:14:50.140Z,20.63
2019-04-22T23:19:41.987Z,22.67
2019-04-22T23:25:00.217Z,22.87
2019-04-22T23:30:15.879Z,27.17
2019-04-22T23:35:39.098Z,27.33
2019-04-22T23:40:57.017Z,29.27
2019-04-22T23:46:01.688Z,33.48
2019-04-22T23:51:06.733Z,32.97
2019-04-22T23:56:08.746Z,33.20
